Terminal Aerodrome Forecast
Issued by NWS Goodland, KS

Current Version | Previous Version | Text Only | Print | Product List | Glossary On
Versions: 1 2 3 4 5 6 7 8 9 10 11 12 13 14 15
000
FTUS43 KGLD 051120
TAFGLD
TAF
KGLD 051120Z 0512/0612 18012KT P6SM BKN250 WS020/23040KT
     FM051500 18018G28KT P6SM SCT100 BKN200
     FM060100 18012KT P6SM VCSH SCT080 BKN150
     FM060600 24010KT P6SM VCSH SCT080=

USA.gov is the U.S. government's official web portal to all federal, state and local government web resources and services.